createdAt,value
2018-12-23T00:01:33.311Z,24.82
2018-12-23T00:04:02.399Z,24.89
2018-12-23T00:06:31.355Z,24.93
2018-12-23T00:09:00.570Z,24.80
2018-12-23T00:11:29.771Z,24.91
2018-12-23T00:13:58.964Z,24.83
2018-12-23T00:16:27.926Z,24.81
2018-12-23T00:18:57.031Z,24.88
2018-12-23T00:21:26.056Z,24.98
2018-12-23T00:23:55.251Z,24.98
2018-12-23T00:26:24.488Z,24.90
2018-12-23T00:28:53.787Z,24.91
2018-12-23T00:31:25.110Z,24.81
2018-12-23T00:33:54.216Z,24.80
2018-12-23T00:36:23.301Z,24.82
2018-12-23T00:38:52.495Z,24.85
2018-12-23T00:41:21.905Z,24.84
2018-12-23T00:43:51.115Z,24.79
2018-12-23T00:46:20.399Z,24.83
2018-12-23T00:48:49.400Z,24.80
2018-12-23T00:51:18.799Z,24.87
2018-12-23T00:53:48.134Z,24.97
2018-12-23T00:56:17.230Z,25.04
2018-12-23T00:58:46.498Z,24.99
2018-12-23T01:01:15.724Z,24.95
2018-12-23T01:03:44.757Z,24.98
2018-12-23T01:06:13.944Z,24.89
2018-12-23T01:08:43.295Z,24.88
2018-12-23T01:11:12.616Z,24.78
2018-12-23T01:13:41.783Z,24.80
2018-12-23T01:16:10.896Z,24.79
2018-12-23T01:18:40.036Z,24.81
2018-12-23T01:21:09.288Z,24.88
2018-12-23T01:23:38.618Z,24.87
2018-12-23T01:26:07.813Z,24.85
2018-12-23T01:28:36.884Z,24.86
2018-12-23T01:31:05.984Z,24.87
2018-12-23T01:33:34.975Z,24.86
2018-12-23T01:36:04.171Z,24.82
2018-12-23T01:38:33.467Z,24.84
2018-12-23T01:41:04.457Z,24.81
2018-12-23T01:43:33.832Z,24.83
2018-12-23T01:46:03.048Z,24.85
2018-12-23T01:48:32.116Z,24.84
2018-12-23T01:51:01.325Z,24.88
2018-12-23T01:53:30.419Z,24.90
2018-12-23T01:55:59.634Z,24.82
2018-12-23T01:58:29.003Z,24.84
2018-12-23T02:00:58.084Z,24.83
2018-12-23T02:03:27.232Z,24.80
2018-12-23T02:05:56.481Z,24.80
2018-12-23T02:08:25.863Z,24.79
2018-12-23T02:10:54.900Z,24.82
2018-12-23T02:13:23.997Z,24.84
2018-12-23T02:15:53.092Z,24.81
2018-12-23T02:18:22.404Z,24.81
2018-12-23T02:20:51.595Z,24.77
2018-12-23T02:23:20.799Z,24.79
2018-12-23T02:25:50.100Z,24.80
2018-12-23T02:28:19.313Z,24.77
2018-12-23T02:30:48.815Z,24.79
2018-12-23T02:33:18.012Z,24.73
2018-12-23T02:35:55.291Z,24.63
2018-12-23T02:38:18.337Z,24.64
2018-12-23T02:40:47.627Z,24.62
2018-12-23T02:43:16.730Z,24.61
2018-12-23T02:45:45.864Z,24.66
2018-12-23T02:48:14.834Z,24.74
2018-12-23T02:50:43.968Z,24.74
2018-12-23T02:53:13.229Z,24.70
2018-12-23T02:55:42.292Z,24.70
2018-12-23T02:58:11.560Z,24.71
2018-12-23T03:00:40.757Z,24.71
2018-12-23T03:03:10.248Z,24.68
2018-12-23T03:05:39.635Z,24.63
2018-12-23T03:08:08.852Z,24.71
2018-12-23T03:10:38.027Z,24.71
2018-12-23T03:13:07.165Z,24.69
2018-12-23T03:15:36.332Z,24.71
2018-12-23T03:18:05.660Z,24.70
2018-12-23T03:20:35.062Z,24.72
2018-12-23T03:23:04.255Z,24.73
2018-12-23T03:25:33.285Z,24.73
2018-12-23T03:28:02.544Z,24.73
2018-12-23T03:30:31.863Z,24.68
2018-12-23T03:33:01.160Z,24.69
2018-12-23T03:35:30.215Z,24.63
2018-12-23T03:37:59.340Z,24.59
2018-12-23T03:40:28.332Z,24.53
2018-12-23T03:42:57.304Z,24.61
2018-12-23T03:45:26.512Z,24.62
2018-12-23T03:47:55.576Z,24.59
2018-12-23T03:50:24.769Z,24.53
2018-12-23T03:52:53.918Z,24.61
2018-12-23T03:55:22.918Z,24.57
2018-12-23T03:57:52.266Z,24.57
2018-12-23T04:00:21.360Z,24.56
2018-12-23T04:02:50.591Z,24.58
2018-12-23T04:05:19.791Z,24.62
2018-12-23T04:07:48.875Z,24.59
2018-12-23T04:10:17.953Z,24.64
2018-12-23T04:12:47.082Z,24.59
2018-12-23T04:15:16.282Z,24.61
2018-12-23T04:17:45.425Z,24.64
2018-12-23T04:20:14.615Z,24.63
2018-12-23T04:22:43.772Z,24.66
2018-12-23T04:25:12.872Z,24.60
2018-12-23T04:27:42.076Z,24.61
2018-12-23T04:30:11.385Z,24.63
2018-12-23T04:32:40.456Z,24.64
2018-12-23T04:35:09.775Z,24.66
2018-12-23T04:37:39.077Z,24.65
2018-12-23T04:40:08.173Z,24.62
2018-12-23T04:42:37.253Z,24.60
2018-12-23T04:45:06.502Z,24.54
2018-12-23T04:47:35.608Z,24.41
2018-12-23T04:50:04.959Z,24.39
2018-12-23T04:52:33.947Z,24.49
2018-12-23T04:55:03.159Z,24.48
2018-12-23T04:57:32.453Z,24.43
2018-12-23T05:00:01.697Z,24.41
2018-12-23T05:02:31.175Z,24.40
2018-12-23T05:05:00.364Z,24.49
2018-12-23T05:07:29.560Z,24.50
2018-12-23T05:10:29.509Z,24.56
2018-12-23T05:12:58.460Z,24.62
2018-12-23T05:15:27.680Z,24.62
2018-12-23T05:17:56.972Z,24.64
2018-12-23T05:20:26.278Z,24.64
2018-12-23T05:22:55.984Z,24.69
2018-12-23T05:25:25.085Z,24.67
2018-12-23T05:27:54.304Z,24.64
2018-12-23T05:30:23.400Z,24.62
2018-12-23T05:32:52.888Z,24.56
2018-12-23T05:35:22.183Z,24.55
2018-12-23T05:38:26.475Z,24.60
2018-12-23T05:40:56.448Z,24.45
2018-12-23T05:43:26.543Z,24.50
2018-12-23T05:45:56.627Z,24.51
2018-12-23T05:48:26.662Z,24.57
2018-12-23T05:50:56.867Z,24.47
2018-12-23T05:53:26.992Z,24.23
2018-12-23T05:55:54.961Z,24.24
2018-12-23T05:58:24.982Z,24.37
2018-12-23T06:00:55.323Z,24.44
2018-12-23T06:03:25.451Z,24.53
2018-12-23T06:05:55.634Z,24.55
2018-12-23T06:08:25.617Z,24.59
2018-12-23T06:10:55.536Z,24.73
2018-12-23T06:13:25.555Z,24.78
2018-12-23T06:15:55.567Z,24.72
2018-12-23T06:18:25.508Z,24.82
2018-12-23T06:20:55.731Z,24.82
2018-12-23T06:23:25.729Z,24.76
2018-12-23T06:25:55.794Z,24.77
2018-12-23T06:28:25.828Z,24.73
2018-12-23T06:30:55.924Z,24.69
2018-12-23T06:33:25.957Z,24.76
2018-12-23T06:35:55.959Z,24.80
2018-12-23T06:38:26.102Z,24.71
2018-12-23T06:40:56.223Z,24.75
2018-12-23T06:43:26.233Z,24.74
2018-12-23T06:45:56.509Z,24.76
2018-12-23T06:48:26.575Z,24.72
2018-12-23T06:50:56.674Z,24.79
2018-12-23T06:53:26.847Z,24.75
2018-12-23T06:55:56.931Z,24.76
2018-12-23T06:58:27.066Z,24.78
2018-12-23T07:00:57.201Z,24.65
2018-12-23T07:03:27.199Z,24.68
2018-12-23T07:05:57.325Z,24.72
2018-12-23T07:08:27.366Z,24.71
2018-12-23T07:10:57.369Z,24.67
2018-12-23T07:13:27.466Z,24.74
2018-12-23T07:15:57.360Z,24.41
2018-12-23T07:18:27.424Z,24.51
2018-12-23T07:20:57.497Z,24.57
2018-12-23T07:23:27.505Z,24.66
2018-12-23T07:25:57.696Z,24.69
2018-12-23T07:28:27.673Z,24.74
2018-12-23T07:30:57.730Z,24.89
2018-12-23T07:33:27.820Z,24.99
2018-12-23T07:35:57.855Z,24.88
2018-12-23T07:38:27.951Z,24.90
2018-12-23T07:40:58.089Z,24.89
2018-12-23T07:43:28.209Z,24.89
2018-12-23T07:45:58.127Z,24.95
2018-12-23T07:48:28.280Z,24.95
2018-12-23T07:50:58.382Z,24.95
2018-12-23T07:53:28.497Z,24.93
2018-12-23T07:55:59.440Z,24.90
2018-12-23T07:58:29.843Z,24.80
2018-12-23T08:01:00.037Z,24.80
2018-12-23T08:03:30.282Z,24.97
2018-12-23T08:06:00.438Z,25.03
2018-12-23T08:08:30.445Z,25.05
2018-12-23T08:11:00.462Z,25.02
2018-12-23T08:13:30.432Z,25.01
2018-12-23T08:16:02.220Z,25.11
2018-12-23T08:18:32.203Z,25.04
2018-12-23T08:21:02.354Z,25.10
2018-12-23T08:23:32.746Z,25.07
2018-12-23T08:26:02.796Z,25.03
2018-12-23T08:28:32.927Z,25.06
2018-12-23T08:31:03.033Z,25.02
2018-12-23T08:33:33.082Z,24.81
2018-12-23T08:36:02.880Z,24.56
2018-12-23T08:38:32.838Z,24.50
2018-12-23T08:41:03.004Z,24.31
2018-12-23T08:43:33.025Z,24.30
2018-12-23T08:46:02.990Z,24.28
2018-12-23T08:48:33.148Z,24.32
2018-12-23T08:51:03.073Z,24.22
2018-12-23T08:53:33.004Z,24.26
2018-12-23T08:56:03.084Z,24.23
2018-12-23T08:58:33.119Z,24.12
2018-12-23T09:01:02.930Z,24.01
2018-12-23T09:03:33.174Z,24.10
2018-12-23T09:06:03.040Z,24.05
2018-12-23T09:08:32.999Z,23.96
2018-12-23T09:11:03.170Z,23.99
2018-12-23T09:13:33.334Z,23.90
2018-12-23T09:16:03.435Z,23.84
2018-12-23T09:18:33.388Z,23.93
2018-12-23T09:21:03.521Z,23.85
2018-12-23T09:23:33.446Z,23.96
2018-12-23T09:26:03.450Z,23.86
2018-12-23T09:28:33.200Z,23.92
2018-12-23T09:31:03.260Z,23.91
2018-12-23T09:33:33.282Z,23.92
2018-12-23T09:36:03.454Z,24.01
2018-12-23T09:38:33.419Z,24.09
2018-12-23T09:41:03.396Z,24.08
2018-12-23T09:43:33.467Z,24.17
2018-12-23T09:46:03.710Z,24.17
2018-12-23T09:48:33.736Z,24.20
2018-12-23T09:51:03.861Z,24.25
2018-12-23T09:53:33.711Z,24.27
2018-12-23T09:56:03.864Z,24.22
2018-12-23T09:58:33.720Z,24.22
2018-12-23T10:01:03.922Z,24.26
2018-12-23T10:03:33.937Z,24.27
2018-12-23T10:06:03.988Z,24.35
2018-12-23T10:08:34.088Z,24.46
2018-12-23T10:11:04.270Z,24.51
2018-12-23T10:13:34.246Z,24.46
2018-12-23T10:16:04.434Z,24.51
2018-12-23T10:18:34.460Z,24.50
2018-12-23T10:21:04.635Z,24.61
2018-12-23T10:23:34.779Z,24.72
2018-12-23T10:26:04.849Z,24.74
2018-12-23T10:28:34.894Z,24.71
2018-12-23T10:31:05.013Z,24.74
2018-12-23T10:33:34.994Z,24.76
2018-12-23T10:36:05.103Z,24.79
2018-12-23T10:38:35.120Z,24.78
2018-12-23T10:41:05.212Z,24.86
2018-12-23T10:43:35.221Z,24.85
2018-12-23T10:46:05.507Z,24.84
2018-12-23T10:48:37.546Z,24.89
2018-12-23T10:51:07.577Z,24.87
2018-12-23T10:53:37.670Z,24.91
2018-12-23T10:56:07.726Z,24.97
2018-12-23T10:58:37.935Z,24.99
2018-12-23T11:01:08.004Z,25.03
2018-12-23T11:03:37.931Z,25.09
2018-12-23T11:06:08.789Z,25.10
2018-12-23T11:08:38.835Z,25.15
2018-12-23T11:11:08.851Z,25.15
2018-12-23T11:13:39.017Z,25.14
2018-12-23T11:16:09.059Z,25.14
2018-12-23T11:18:38.852Z,25.13
2018-12-23T11:21:08.942Z,25.16
2018-12-23T11:23:38.722Z,25.18
2018-12-23T11:26:08.981Z,25.21
2018-12-23T11:28:39.161Z,25.24
2018-12-23T11:31:09.243Z,25.23
2018-12-23T11:33:39.381Z,25.24
2018-12-23T11:36:09.500Z,25.28
2018-12-23T11:38:39.538Z,25.30
2018-12-23T11:41:09.643Z,25.31
2018-12-23T11:43:39.666Z,25.37
2018-12-23T11:46:09.731Z,25.36
2018-12-23T11:48:39.796Z,25.43
2018-12-23T11:51:09.973Z,25.47
2018-12-23T11:53:40.210Z,25.46
2018-12-23T11:56:10.421Z,25.45
2018-12-23T11:58:40.415Z,25.42
2018-12-23T12:01:10.417Z,25.41
2018-12-23T12:03:40.526Z,25.43
2018-12-23T12:06:10.542Z,25.48
2018-12-23T12:08:43.906Z,25.48
2018-12-23T12:11:12.332Z,25.50
2018-12-23T12:13:42.436Z,25.49
2018-12-23T12:16:12.561Z,25.49
2018-12-23T12:18:42.558Z,25.53
2018-12-23T12:21:12.837Z,25.55
2018-12-23T12:23:42.893Z,25.49
2018-12-23T12:26:12.753Z,25.53
2018-12-23T12:28:42.841Z,25.51
2018-12-23T12:31:13.063Z,25.54
2018-12-23T12:33:43.113Z,25.62
2018-12-23T12:36:12.996Z,25.61
2018-12-23T12:38:42.865Z,25.56
2018-12-23T12:41:12.858Z,25.58
2018-12-23T12:43:42.855Z,25.63
2018-12-23T12:46:13.036Z,25.58
2018-12-23T12:48:42.982Z,25.64
2018-12-23T12:51:13.065Z,25.58
2018-12-23T12:53:43.337Z,25.59
2018-12-23T12:56:13.588Z,25.64
2018-12-23T12:58:43.574Z,25.65
2018-12-23T13:01:13.615Z,25.65
2018-12-23T13:03:43.644Z,25.55
2018-12-23T13:06:13.908Z,25.57
2018-12-23T13:08:43.861Z,25.48
2018-12-23T13:11:13.878Z,25.55
2018-12-23T13:13:43.897Z,25.52
2018-12-23T13:16:14.180Z,25.59
2018-12-23T13:18:44.398Z,25.55
2018-12-23T13:21:14.667Z,25.55
2018-12-23T13:23:44.986Z,25.53
2018-12-23T13:26:15.087Z,25.46
2018-12-23T13:28:45.132Z,25.43
2018-12-23T13:31:15.150Z,25.36
2018-12-23T13:33:45.364Z,25.38
2018-12-23T13:36:15.561Z,25.43
2018-12-23T13:38:45.624Z,25.43
2018-12-23T13:41:57.883Z,25.39
2018-12-23T13:45:04.292Z,25.32
2018-12-23T13:48:29.812Z,25.19
2018-12-23T13:51:20.731Z,25.35
2018-12-23T13:54:18.185Z,25.43
2018-12-23T13:57:15.779Z,25.47
2018-12-23T14:00:23.856Z,25.34
2018-12-23T14:03:39.918Z,25.36
2018-12-23T14:06:42.427Z,25.44
2018-12-23T14:09:23.784Z,25.48
2018-12-23T14:11:59.986Z,25.45
2018-12-23T14:14:30.061Z,25.39
2018-12-23T14:17:00.122Z,25.39
2018-12-23T14:19:30.250Z,25.43
2018-12-23T14:22:00.288Z,25.43
2018-12-23T14:24:31.318Z,25.43
2018-12-23T14:27:01.416Z,25.44
2018-12-23T14:29:31.538Z,25.42
2018-12-23T14:32:01.552Z,25.44
2018-12-23T14:34:31.830Z,25.42
2018-12-23T14:37:02.065Z,25.38
2018-12-23T14:39:33.346Z,25.41
2018-12-23T14:42:03.433Z,25.45
2018-12-23T14:44:33.610Z,25.43
2018-12-23T14:47:04.570Z,25.49
2018-12-23T14:49:34.522Z,25.47
2018-12-23T14:52:04.634Z,25.40
2018-12-23T14:54:34.587Z,25.37
2018-12-23T14:57:04.833Z,25.40
2018-12-23T14:59:34.823Z,25.45
2018-12-23T15:02:05.177Z,25.52
2018-12-23T15:04:35.358Z,25.44
2018-12-23T15:07:05.421Z,25.33
2018-12-23T15:09:35.532Z,25.19
2018-12-23T15:12:05.747Z,25.19
2018-12-23T15:14:35.759Z,25.21
2018-12-23T15:17:06.004Z,25.35
2018-12-23T15:19:36.095Z,25.42
2018-12-23T15:22:06.429Z,25.41
2018-12-23T15:24:36.468Z,25.41
2018-12-23T15:27:06.580Z,25.38
2018-12-23T15:29:36.688Z,25.30
2018-12-23T15:32:06.936Z,25.38
2018-12-23T15:34:36.893Z,25.39
2018-12-23T15:37:06.940Z,25.39
2018-12-23T15:39:42.496Z,25.41
2018-12-23T15:42:08.754Z,25.40
2018-12-23T15:44:38.945Z,25.34
2018-12-23T15:47:08.877Z,25.38
2018-12-23T15:49:38.918Z,25.42
2018-12-23T15:52:09.038Z,25.38
2018-12-23T15:54:46.021Z,25.39
2018-12-23T15:57:10.789Z,25.41
2018-12-23T15:59:40.788Z,25.40
2018-12-23T16:02:10.919Z,25.38
2018-12-23T16:04:41.150Z,25.38
2018-12-23T16:07:11.158Z,25.42
2018-12-23T16:09:41.317Z,25.41
2018-12-23T16:12:11.688Z,25.41
2018-12-23T16:14:41.773Z,25.41
2018-12-23T16:17:11.782Z,25.39
2018-12-23T16:19:41.969Z,25.40
2018-12-23T16:22:11.906Z,25.42
2018-12-23T16:24:42.596Z,25.40
2018-12-23T16:27:12.758Z,25.34
2018-12-23T16:29:42.849Z,25.29
2018-12-23T16:32:12.949Z,25.31
2018-12-23T16:34:43.034Z,25.31
2018-12-23T16:37:13.069Z,25.30
2018-12-23T16:39:43.029Z,25.36
2018-12-23T16:42:13.055Z,25.36
2018-12-23T16:44:42.995Z,25.42
2018-12-23T16:47:13.042Z,25.48
2018-12-23T16:49:43.067Z,25.50
2018-12-23T16:52:13.133Z,25.40
2018-12-23T16:54:43.131Z,25.51
2018-12-23T16:57:13.184Z,25.54
2018-12-23T16:59:43.382Z,25.58
2018-12-23T17:02:13.324Z,25.60
2018-12-23T17:04:43.308Z,25.56
2018-12-23T17:07:13.228Z,25.50
2018-12-23T17:09:43.447Z,25.51
2018-12-23T17:12:13.467Z,25.54
2018-12-23T17:14:43.621Z,25.49
2018-12-23T17:17:13.718Z,25.55
2018-12-23T17:19:43.830Z,25.47
2018-12-23T17:22:14.087Z,25.53
2018-12-23T17:24:44.116Z,25.53
2018-12-23T17:27:14.124Z,25.56
2018-12-23T17:29:44.110Z,25.44
2018-12-23T17:32:14.285Z,25.56
2018-12-23T17:34:44.636Z,25.54
2018-12-23T17:37:14.809Z,25.53
2018-12-23T17:39:44.795Z,25.53
2018-12-23T17:42:14.828Z,25.51
2018-12-23T17:44:44.791Z,25.52
2018-12-23T17:47:14.845Z,25.51
2018-12-23T17:49:45.166Z,25.48
2018-12-23T17:52:23.006Z,25.43
2018-12-23T17:54:47.045Z,25.44
2018-12-23T17:57:17.082Z,25.53
2018-12-23T17:59:47.081Z,25.53
2018-12-23T18:02:17.111Z,25.52
2018-12-23T18:04:47.216Z,25.53
2018-12-23T18:07:17.366Z,25.55
2018-12-23T18:09:47.364Z,25.60
2018-12-23T18:12:17.504Z,25.49
2018-12-23T18:14:47.492Z,25.48
2018-12-23T18:17:17.511Z,25.55
2018-12-23T18:19:47.590Z,25.58
2018-12-23T18:22:17.617Z,25.54
2018-12-23T18:24:47.429Z,25.53
2018-12-23T18:27:17.378Z,25.57
2018-12-23T18:29:47.328Z,25.58
2018-12-23T18:32:17.343Z,25.65
2018-12-23T18:34:47.341Z,25.62
2018-12-23T18:37:17.465Z,25.58
2018-12-23T18:39:47.461Z,25.56
2018-12-23T18:42:17.514Z,25.57
2018-12-23T18:44:47.713Z,25.56
2018-12-23T18:47:17.756Z,25.37
2018-12-23T18:49:47.765Z,25.39
2018-12-23T18:52:17.899Z,25.40
2018-12-23T18:54:47.917Z,25.41
2018-12-23T18:57:19.620Z,25.46
2018-12-23T18:59:50.626Z,25.33
2018-12-23T19:02:30.649Z,25.47
2018-12-23T19:05:00.768Z,25.29
2018-12-23T19:07:30.789Z,25.11
2018-12-23T19:10:28.559Z,25.37
2018-12-23T19:13:42.299Z,25.49
2018-12-23T19:16:35.192Z,25.61
2018-12-23T19:19:58.277Z,25.62
2018-12-23T19:23:17.999Z,25.62
2018-12-23T19:26:46.679Z,25.58
2018-12-23T19:29:28.696Z,25.49
2018-12-23T19:32:20.216Z,25.41
2018-12-23T19:35:43.079Z,25.38
2018-12-23T19:39:12.279Z,25.34
2018-12-23T19:42:15.992Z,25.37
2018-12-23T19:45:07.484Z,25.41
2018-12-23T19:48:33.539Z,25.37
2018-12-23T19:51:59.527Z,25.35
2018-12-23T19:55:02.318Z,25.42
2018-12-23T19:58:01.155Z,25.46
2018-12-23T20:01:14.449Z,25.50
2018-12-23T20:04:08.372Z,25.47
2018-12-23T20:07:40.672Z,25.51
2018-12-23T20:10:36.357Z,25.42
2018-12-23T20:13:51.944Z,25.43
2018-12-23T20:16:59.743Z,25.43
2018-12-23T20:20:22.034Z,25.40
2018-12-23T20:23:28.024Z,25.43
2018-12-23T20:26:55.002Z,25.44
2018-12-23T20:29:49.179Z,25.44
2018-12-23T20:32:47.789Z,25.44
2018-12-23T20:36:03.703Z,25.46
2018-12-23T20:39:28.582Z,25.48
2018-12-23T20:42:28.802Z,25.43
2018-12-23T20:45:41.365Z,25.42
2018-12-23T20:49:04.484Z,25.32
2018-12-23T20:52:27.568Z,25.40
2018-12-23T20:55:30.808Z,25.28
2018-12-23T20:58:43.771Z,25.29
2018-12-23T21:02:09.437Z,25.30
2018-12-23T21:05:00.806Z,25.30
2018-12-23T21:08:07.177Z,25.24
2018-12-23T21:11:29.799Z,25.21
2018-12-23T21:14:46.344Z,25.21
2018-12-23T21:18:27.417Z,25.23
2018-12-23T21:21:24.287Z,25.27
2018-12-23T21:24:35.051Z,25.27
2018-12-23T21:27:47.901Z,25.19
2018-12-23T21:30:50.806Z,25.23
2018-12-23T21:33:57.330Z,25.15
2018-12-23T21:36:52.285Z,25.19
2018-12-23T21:39:45.288Z,25.12
2018-12-23T21:42:51.118Z,25.11
2018-12-23T21:45:59.828Z,25.16
2018-12-23T21:48:37.710Z,25.09
2018-12-23T21:51:47.268Z,25.14
2018-12-23T21:55:28.661Z,25.09
2018-12-23T21:58:30.778Z,25.09
2018-12-23T22:01:23.130Z,25.10
2018-12-23T22:04:36.309Z,25.10
2018-12-23T22:07:55.838Z,25.11
2018-12-23T22:10:52.688Z,25.11
2018-12-23T22:13:29.219Z,25.13
2018-12-23T22:15:59.160Z,25.08
2018-12-23T22:18:29.605Z,25.10
2018-12-23T22:20:59.731Z,25.06
2018-12-23T22:23:30.245Z,25.02
2018-12-23T22:26:02.426Z,24.97
2018-12-23T22:28:32.460Z,25.03
2018-12-23T22:31:02.672Z,24.98
2018-12-23T22:33:32.860Z,25.05
2018-12-23T22:36:03.007Z,25.05
2018-12-23T22:38:33.019Z,25.04
2018-12-23T22:41:25.176Z,25.06
2018-12-23T22:43:55.175Z,24.99
2018-12-23T22:46:25.400Z,25.01
2018-12-23T22:48:55.416Z,25.03
2018-12-23T22:51:25.382Z,25.00
2018-12-23T22:53:55.445Z,24.96
2018-12-23T22:56:25.432Z,24.98
2018-12-23T22:58:55.438Z,24.98
2018-12-23T23:01:25.507Z,24.95
2018-12-23T23:03:55.483Z,25.02
2018-12-23T23:06:25.440Z,24.99
2018-12-23T23:08:55.579Z,24.99
2018-12-23T23:11:27.461Z,24.98
2018-12-23T23:13:57.245Z,24.98
2018-12-23T23:16:27.456Z,24.94
2018-12-23T23:18:57.584Z,24.88
2018-12-23T23:21:27.701Z,24.93
2018-12-23T23:23:57.620Z,24.99
2018-12-23T23:26:27.724Z,24.95
2018-12-23T23:28:57.864Z,24.95
2018-12-23T23:31:27.904Z,24.87
2018-12-23T23:33:57.857Z,24.91
2018-12-23T23:36:27.770Z,24.94
2018-12-23T23:38:57.839Z,24.93
2018-12-23T23:41:27.953Z,24.91
2018-12-23T23:43:58.178Z,24.94
2018-12-23T23:46:28.191Z,24.94
2018-12-23T23:48:58.410Z,24.85
2018-12-23T23:51:28.418Z,24.81
2018-12-23T23:53:58.482Z,24.83
2018-12-23T23:56:28.566Z,24.86
2018-12-23T23:58:58.589Z,24.86
